createdAt,value
2017-12-12T00:00:59.131Z,1.38
2017-12-12T00:02:01.204Z,1.36
2017-12-12T00:02:59.138Z,1.39
2017-12-12T00:04:00.196Z,1.41
2017-12-12T00:04:59.150Z,1.36
2017-12-12T00:06:04.100Z,1.38
2017-12-12T00:06:59.141Z,1.38
2017-12-12T00:07:59.196Z,1.39
2017-12-12T00:08:59.148Z,1.36
2017-12-12T00:09:59.212Z,1.34
2017-12-12T00:10:59.169Z,1.31
2017-12-12T00:11:59.221Z,1.26
2017-12-12T00:12:59.180Z,1.38
2017-12-12T00:13:59.273Z,1.35
2017-12-12T00:14:59.165Z,1.36
2017-12-12T00:16:04.064Z,1.31
2017-12-12T00:16:59.189Z,1.36
2017-12-12T00:18:00.306Z,1.38
2017-12-12T00:18:59.208Z,1.39
2017-12-12T00:19:59.291Z,1.39
2017-12-12T00:20:59.192Z,1.39
2017-12-12T00:22:04.102Z,1.38
2017-12-12T00:22:59.196Z,1.38
2017-12-12T00:24:04.016Z,1.38
2017-12-12T00:24:59.194Z,1.42
2017-12-12T00:25:59.211Z,1.35
2017-12-12T00:26:59.201Z,1.41
2017-12-12T00:28:01.288Z,1.28
2017-12-12T00:28:59.215Z,1.31
2017-12-12T00:30:00.268Z,1.41
2017-12-12T00:30:59.218Z,1.27
2017-12-12T00:32:04.070Z,1.26
2017-12-12T00:32:59.226Z,1.35
2017-12-12T00:34:12.071Z,1.27
2017-12-12T00:34:59.230Z,1.30
2017-12-12T00:36:00.322Z,1.31
2017-12-12T00:36:59.245Z,1.26
2017-12-12T00:37:59.324Z,1.27
2017-12-12T00:38:59.248Z,1.28
2017-12-12T00:40:04.016Z,1.23
2017-12-12T00:40:59.242Z,1.30
2017-12-12T00:42:06.075Z,1.26
2017-12-12T00:42:59.254Z,1.23
2017-12-12T00:44:00.367Z,1.23
2017-12-12T00:44:59.259Z,1.17
2017-12-12T00:45:59.364Z,1.12
2017-12-12T00:46:59.269Z,1.16
2017-12-12T00:48:11.040Z,1.21
2017-12-12T00:48:59.278Z,1.17
2017-12-12T00:49:59.371Z,1.18
2017-12-12T00:50:59.275Z,1.16
2017-12-12T00:51:59.287Z,1.10
2017-12-12T00:52:59.303Z,1.20
2017-12-12T00:53:59.280Z,1.13
2017-12-12T00:54:59.324Z,1.21
2017-12-12T00:55:59.290Z,1.18
2017-12-12T00:57:00.354Z,1.13
2017-12-12T00:57:59.300Z,1.12
2017-12-12T00:58:59.337Z,1.17
2017-12-12T00:59:59.299Z,1.13
2017-12-12T01:01:04.064Z,1.13
2017-12-12T01:01:59.302Z,1.17
2017-12-12T01:03:04.073Z,1.09
2017-12-12T01:03:59.315Z,1.20
2017-12-12T01:05:00.397Z,1.13
2017-12-12T01:05:59.315Z,1.08
2017-12-12T01:07:04.122Z,1.13
2017-12-12T01:07:59.325Z,1.08
2017-12-12T01:09:00.431Z,1.18
2017-12-12T01:09:59.331Z,0.99
2017-12-12T01:11:10.076Z,1.06
2017-12-12T01:11:59.334Z,1.12
2017-12-12T01:13:00.456Z,1.10
2017-12-12T01:13:59.337Z,0.99
2017-12-12T01:15:05.079Z,1.03
2017-12-12T01:15:59.365Z,1.10
2017-12-12T01:17:00.383Z,1.10
2017-12-12T01:17:59.361Z,1.05
2017-12-12T01:19:04.086Z,1.05
2017-12-12T01:19:59.361Z,1.06
2017-12-12T01:20:59.389Z,1.09
2017-12-12T01:21:59.360Z,0.96
2017-12-12T01:23:01.445Z,1.00
2017-12-12T01:23:59.371Z,1.02
2017-12-12T01:25:00.445Z,0.98
2017-12-12T01:25:59.372Z,1.00
2017-12-12T01:26:59.433Z,1.00
2017-12-12T01:27:59.393Z,1.02
2017-12-12T01:29:11.108Z,0.90
2017-12-12T01:29:59.384Z,0.96
2017-12-12T01:30:59.451Z,0.96
2017-12-12T01:31:59.393Z,0.90
2017-12-12T01:33:00.489Z,0.88
2017-12-12T01:33:59.398Z,0.90
2017-12-12T01:34:59.476Z,0.96
2017-12-12T01:35:59.407Z,0.91
2017-12-12T01:37:00.543Z,0.88
2017-12-12T01:37:59.422Z,0.85
2017-12-12T01:39:00.531Z,0.87
2017-12-12T01:39:59.421Z,0.82
2017-12-12T01:41:01.461Z,0.82
2017-12-12T01:41:59.420Z,0.92
2017-12-12T01:43:05.080Z,0.81
2017-12-12T01:43:59.429Z,0.85
2017-12-12T01:45:00.465Z,0.90
2017-12-12T01:45:59.442Z,0.82
2017-12-12T01:47:01.500Z,0.82
2017-12-12T01:47:59.435Z,0.88
2017-12-12T01:49:06.150Z,0.92
2017-12-12T01:49:59.471Z,0.91
2017-12-12T01:51:01.533Z,0.90
2017-12-12T01:51:59.448Z,0.85
2017-12-12T01:53:05.019Z,0.84
2017-12-12T01:53:59.458Z,0.87
2017-12-12T01:54:59.505Z,0.82
2017-12-12T01:55:59.464Z,0.96
2017-12-12T01:57:01.565Z,0.90
2017-12-12T01:57:59.460Z,0.94
2017-12-12T01:59:05.062Z,0.90
2017-12-12T01:59:59.470Z,0.84
2017-12-12T02:01:10.096Z,0.81
2017-12-12T02:01:59.481Z,0.88
2017-12-12T02:03:01.508Z,0.90
2017-12-12T02:03:59.483Z,0.96
2017-12-12T02:05:04.085Z,0.80
2017-12-12T02:05:59.504Z,0.90
2017-12-12T02:06:59.494Z,0.91
2017-12-12T02:07:59.603Z,0.81
2017-12-12T02:08:59.497Z,0.91
2017-12-12T02:10:04.141Z,0.92
2017-12-12T02:10:59.501Z,0.88
2017-12-12T02:12:12.118Z,0.84
2017-12-12T02:12:59.509Z,0.76
2017-12-12T02:14:01.582Z,0.92
2017-12-12T02:14:59.526Z,0.80
2017-12-12T02:16:11.533Z,0.90
2017-12-12T02:16:59.522Z,0.82
2017-12-12T02:18:06.531Z,0.84
2017-12-12T02:18:59.536Z,0.84
2017-12-12T02:19:59.577Z,0.88
2017-12-12T02:20:59.537Z,0.87
2017-12-12T02:22:00.621Z,0.91
2017-12-12T02:22:59.543Z,0.91
2017-12-12T02:24:05.540Z,0.84
2017-12-12T02:24:59.548Z,0.82
2017-12-12T02:25:59.617Z,0.85
2017-12-12T02:26:59.550Z,0.90
2017-12-12T02:27:59.639Z,0.88
2017-12-12T02:28:59.563Z,0.87
2017-12-12T02:30:05.585Z,0.87
2017-12-12T02:30:59.557Z,0.90
2017-12-12T02:31:59.665Z,0.92
2017-12-12T02:32:59.564Z,0.81
2017-12-12T02:34:06.533Z,0.82
2017-12-12T02:34:59.571Z,0.91
2017-12-12T02:35:59.582Z,0.82
2017-12-12T02:36:59.578Z,0.91
2017-12-12T02:38:06.557Z,0.96
2017-12-12T02:38:59.580Z,0.94
2017-12-12T02:40:04.623Z,0.82
2017-12-12T02:40:59.599Z,0.88
2017-12-12T02:41:59.623Z,0.90
2017-12-12T02:42:59.605Z,0.85
2017-12-12T02:43:59.654Z,0.88
2017-12-12T02:44:59.610Z,0.90
2017-12-12T02:45:59.686Z,0.91
2017-12-12T02:46:59.608Z,0.88
2017-12-12T02:48:00.687Z,0.90
2017-12-12T02:48:59.647Z,0.90
2017-12-12T02:50:00.707Z,0.92
2017-12-12T02:50:59.619Z,0.98
2017-12-12T02:51:59.691Z,0.94
2017-12-12T02:52:59.621Z,0.96
2017-12-12T02:53:59.701Z,0.88
2017-12-12T02:54:59.631Z,0.87
2017-12-12T02:56:00.745Z,0.98
2017-12-12T02:56:59.650Z,1.02
2017-12-12T02:57:59.634Z,0.92
2017-12-12T02:59:04.549Z,1.02
2017-12-12T02:59:59.655Z,0.94
2017-12-12T03:01:04.568Z,1.00
2017-12-12T03:01:59.647Z,0.98
2017-12-12T03:03:04.573Z,0.99
2017-12-12T03:03:59.667Z,0.98
2017-12-12T03:04:59.678Z,0.99
2017-12-12T03:05:59.657Z,0.96
2017-12-12T03:07:01.522Z,0.96
2017-12-12T03:08:04.536Z,1.09
2017-12-12T03:08:59.677Z,0.99
2017-12-12T03:10:00.757Z,1.09
2017-12-12T03:10:59.694Z,1.05
2017-12-12T03:11:59.752Z,1.10
2017-12-12T03:12:59.678Z,1.12
2017-12-12T03:14:01.714Z,1.10
2017-12-12T03:14:59.693Z,1.08
2017-12-12T03:16:06.539Z,1.13
2017-12-12T03:16:59.693Z,1.12
2017-12-12T03:18:10.544Z,1.16
2017-12-12T03:18:59.697Z,1.05
2017-12-12T03:19:59.817Z,1.10
2017-12-12T03:20:59.707Z,1.18
2017-12-12T03:22:00.742Z,1.03
2017-12-12T03:22:59.712Z,1.05
2017-12-12T03:24:04.546Z,1.08
2017-12-12T03:24:59.718Z,1.09
2017-12-12T03:26:00.767Z,1.16
2017-12-12T03:26:59.717Z,1.13
2017-12-12T03:27:59.762Z,1.12
2017-12-12T03:28:59.725Z,1.16
2017-12-12T03:29:59.779Z,1.12
2017-12-12T03:30:59.732Z,1.17
2017-12-12T03:32:00.813Z,1.13
2017-12-12T03:32:59.730Z,1.13
2017-12-12T03:34:06.560Z,1.13
2017-12-12T03:34:59.742Z,1.10
2017-12-12T03:36:11.596Z,1.13
2017-12-12T03:36:59.746Z,1.13
2017-12-12T03:38:05.558Z,1.17
2017-12-12T03:38:59.782Z,1.10
2017-12-12T03:40:06.605Z,1.20
2017-12-12T03:40:59.764Z,1.18
2017-12-12T03:41:59.858Z,1.12
2017-12-12T03:42:59.768Z,1.17
2017-12-12T03:44:01.822Z,1.27
2017-12-12T03:44:59.780Z,1.24
2017-12-12T03:45:59.884Z,1.26
2017-12-12T03:46:59.771Z,1.26
2017-12-12T03:48:05.633Z,1.31
2017-12-12T03:48:59.779Z,1.30
2017-12-12T03:50:12.613Z,1.31
2017-12-12T03:50:59.785Z,1.24
2017-12-12T03:51:59.831Z,1.34
2017-12-12T03:52:59.795Z,1.28
2017-12-12T03:54:00.863Z,1.28
2017-12-12T03:54:59.800Z,1.27
2017-12-12T03:56:00.875Z,1.23
2017-12-12T03:56:59.797Z,1.24
2017-12-12T03:57:59.865Z,1.27
2017-12-12T03:58:59.817Z,1.35
2017-12-12T04:00:06.641Z,1.28
2017-12-12T04:00:59.816Z,1.28
2017-12-12T04:01:59.892Z,1.36
2017-12-12T04:02:59.822Z,1.38
2017-12-12T04:04:00.930Z,1.34
2017-12-12T04:04:59.834Z,1.34
2017-12-12T04:05:59.948Z,1.31
2017-12-12T04:06:59.849Z,1.41
2017-12-12T04:08:01.942Z,1.38
2017-12-12T04:08:59.843Z,1.46
2017-12-12T04:10:05.581Z,1.38
2017-12-12T04:10:59.854Z,1.31
2017-12-12T04:12:00.878Z,1.36
2017-12-12T04:12:59.856Z,1.36
2017-12-12T04:14:06.624Z,1.36
2017-12-12T04:14:59.854Z,1.38
2017-12-12T04:16:06.639Z,1.41
2017-12-12T04:16:59.866Z,1.41
2017-12-12T04:17:59.905Z,1.45
2017-12-12T04:18:59.859Z,1.45
2017-12-12T04:20:01.961Z,1.38
2017-12-12T04:20:59.878Z,1.38
2017-12-12T04:21:59.941Z,1.38
2017-12-12T04:22:59.892Z,1.44
2017-12-12T04:23:59.932Z,1.41
2017-12-12T04:24:59.888Z,1.44
2017-12-12T04:26:15.621Z,1.39
2017-12-12T04:26:59.884Z,1.42
2017-12-12T04:28:02.013Z,1.36
2017-12-12T04:28:59.892Z,1.44
2017-12-12T04:29:59.978Z,1.38
2017-12-12T04:30:59.896Z,1.41
2017-12-12T04:32:04.603Z,1.42
2017-12-12T04:32:59.911Z,1.41
2017-12-12T04:34:01.944Z,1.41
2017-12-12T04:34:59.911Z,1.39
2017-12-12T04:36:00.025Z,1.46
2017-12-12T04:36:59.916Z,1.45
2017-12-12T04:38:00.956Z,1.45
2017-12-12T04:38:59.917Z,1.46
2017-12-12T04:39:59.945Z,1.48
2017-12-12T04:40:59.949Z,1.45
2017-12-12T04:41:59.955Z,1.52
2017-12-12T04:43:00.525Z,1.41
2017-12-12T04:44:05.604Z,1.48
2017-12-12T04:44:59.936Z,1.45
2017-12-12T04:45:59.982Z,1.46
2017-12-12T04:46:59.946Z,1.44
2017-12-12T04:48:01.034Z,1.49
2017-12-12T04:48:59.950Z,1.45
2017-12-12T04:50:02.136Z,1.44
2017-12-12T04:50:59.953Z,1.44
2017-12-12T04:52:01.050Z,1.45
2017-12-12T04:52:59.956Z,1.45
2017-12-12T04:54:01.062Z,1.41
2017-12-12T04:54:59.970Z,1.44
2017-12-12T04:56:01.534Z,1.45
2017-12-12T05:17:28.867Z,1.42
2017-12-12T05:18:27.786Z,1.27
2017-12-12T05:19:28.830Z,1.31
2017-12-12T05:20:27.749Z,1.36
2017-12-12T05:21:42.461Z,1.35
2017-12-12T05:22:27.744Z,1.26
2017-12-12T05:23:42.479Z,1.34
2017-12-12T05:24:27.746Z,1.36
2017-12-12T05:25:32.471Z,1.36
2017-12-12T05:26:27.757Z,1.31
2017-12-12T05:27:27.859Z,1.41
2017-12-12T05:28:27.786Z,1.39
2017-12-12T05:29:40.473Z,1.36
2017-12-12T05:30:27.823Z,1.41
2017-12-12T05:31:28.811Z,1.28
2017-12-12T05:32:27.772Z,1.41
2017-12-12T05:33:28.820Z,1.36
2017-12-12T05:34:27.787Z,1.38
2017-12-12T05:35:34.561Z,1.35
2017-12-12T05:36:27.788Z,1.31
2017-12-12T05:37:27.826Z,1.36
2017-12-12T05:38:27.790Z,1.39
2017-12-12T05:39:28.866Z,1.38
2017-12-12T05:40:27.794Z,1.44
2017-12-12T05:41:42.496Z,1.35
2017-12-12T05:42:27.805Z,1.30
2017-12-12T05:43:28.888Z,1.23
2017-12-12T05:44:27.814Z,1.39
2017-12-12T05:45:43.558Z,1.27
2017-12-12T05:46:27.810Z,1.38
2017-12-12T05:47:27.891Z,1.39
2017-12-12T05:48:27.824Z,1.34
2017-12-12T05:49:34.476Z,1.35
2017-12-12T05:50:27.826Z,1.34
2017-12-12T05:51:29.884Z,1.39
2017-12-12T05:52:27.828Z,1.30
2017-12-12T05:53:40.524Z,1.36
2017-12-12T05:54:27.837Z,1.38
2017-12-12T05:55:29.889Z,1.31
2017-12-12T05:56:27.869Z,1.34
2017-12-12T05:57:27.862Z,1.34
2017-12-12T05:58:27.842Z,1.42
2017-12-12T05:59:28.051Z,1.34
2017-12-12T06:00:27.854Z,1.42
2017-12-12T06:01:33.516Z,1.27
2017-12-12T06:02:27.851Z,1.41
2017-12-12T06:03:34.554Z,1.41
2017-12-12T06:04:27.873Z,1.26
2017-12-12T06:05:28.943Z,1.28
2017-12-12T06:06:27.862Z,1.38
2017-12-12T06:07:27.927Z,1.31
2017-12-12T06:08:27.888Z,1.38
2017-12-12T06:09:59.479Z,1.38
2017-12-12T06:10:27.882Z,1.39
2017-12-12T06:11:27.876Z,1.30
2017-12-12T06:12:28.982Z,1.31
2017-12-12T06:13:27.899Z,1.31
2017-12-12T06:14:33.512Z,1.34
2017-12-12T06:15:27.896Z,1.31
2017-12-12T06:16:27.987Z,1.27
2017-12-12T06:17:27.896Z,1.31
2017-12-12T06:18:28.919Z,1.28
2017-12-12T06:19:27.904Z,1.27
2017-12-12T06:20:29.960Z,1.28
2017-12-12T06:21:27.925Z,1.28
2017-12-12T06:22:27.937Z,1.28
2017-12-12T06:23:27.909Z,1.30
2017-12-12T06:24:39.518Z,1.28
2017-12-12T06:25:27.921Z,1.27
2017-12-12T06:26:32.456Z,1.31
2017-12-12T06:27:27.925Z,1.35
2017-12-12T06:28:29.007Z,1.27
2017-12-12T06:29:27.928Z,1.31
2017-12-12T06:30:29.012Z,1.23
2017-12-12T06:31:27.940Z,1.34
2017-12-12T06:32:34.549Z,1.27
2017-12-12T06:33:27.950Z,1.26
2017-12-12T06:34:28.070Z,1.30
2017-12-12T06:35:27.963Z,1.21
2017-12-12T06:36:32.525Z,1.34
2017-12-12T06:37:27.946Z,1.30
2017-12-12T06:38:29.059Z,1.28
2017-12-12T06:39:27.979Z,1.28
2017-12-12T06:40:34.024Z,1.27
2017-12-12T06:41:27.958Z,1.30
2017-12-12T06:42:28.062Z,1.31
2017-12-12T06:43:27.963Z,1.34
2017-12-12T06:44:33.105Z,1.35
2017-12-12T06:45:27.996Z,1.35
2017-12-12T06:46:39.042Z,1.23
2017-12-12T06:47:27.991Z,1.23
2017-12-12T06:48:43.075Z,1.23
2017-12-12T06:49:27.987Z,1.16
2017-12-12T06:50:33.027Z,1.21
2017-12-12T06:51:27.990Z,1.23
2017-12-12T06:52:29.047Z,1.26
2017-12-12T06:53:27.999Z,1.23
2017-12-12T06:54:33.068Z,1.31
2017-12-12T06:55:28.001Z,1.26
2017-12-12T06:56:35.029Z,1.30
2017-12-12T06:57:28.007Z,1.38
2017-12-12T06:58:28.061Z,1.30
2017-12-12T06:59:28.006Z,1.39
2017-12-12T07:00:29.117Z,1.30
2017-12-12T07:01:28.023Z,1.27
2017-12-12T07:02:28.098Z,1.34
2017-12-12T07:03:28.022Z,1.27
2017-12-12T07:04:50.134Z,1.27
2017-12-12T07:05:28.038Z,1.28
2017-12-12T07:06:29.148Z,1.39
2017-12-12T07:07:28.036Z,1.36
2017-12-12T07:08:38.995Z,1.39
2017-12-12T07:09:28.040Z,1.36
2017-12-12T07:10:29.076Z,1.21
2017-12-12T07:11:28.044Z,1.35
2017-12-12T07:12:28.064Z,1.39
2017-12-12T07:13:28.048Z,1.38
2017-12-12T07:14:40.058Z,1.35
2017-12-12T07:15:28.060Z,1.31
2017-12-12T07:16:28.091Z,1.41
2017-12-12T07:17:28.056Z,1.28
2017-12-12T07:18:34.050Z,1.36
2017-12-12T07:19:28.058Z,1.41
2017-12-12T07:20:34.060Z,1.36
2017-12-12T07:21:28.072Z,1.35
2017-12-12T07:22:33.066Z,1.42
2017-12-12T07:23:28.092Z,1.39
2017-12-12T07:24:33.981Z,1.44
2017-12-12T07:25:28.101Z,1.44
2017-12-12T07:26:28.105Z,1.42
2017-12-12T07:27:30.117Z,1.48
2017-12-12T07:28:28.083Z,1.48
2017-12-12T07:29:30.123Z,1.44
2017-12-12T07:30:28.127Z,1.48
2017-12-12T07:31:29.230Z,1.46
2017-12-12T07:32:28.096Z,1.48
2017-12-12T07:33:28.229Z,1.44
2017-12-12T07:34:28.106Z,1.56
2017-12-12T07:35:29.137Z,1.56
2017-12-12T07:36:28.109Z,1.56
2017-12-12T07:37:29.164Z,1.44
2017-12-12T07:38:28.106Z,1.48
2017-12-12T07:39:29.176Z,1.53
2017-12-12T07:40:28.208Z,1.55
2017-12-12T07:41:35.057Z,1.56
2017-12-12T07:42:28.212Z,1.63
2017-12-12T07:43:30.223Z,1.57
2017-12-12T07:44:28.131Z,1.53
2017-12-12T07:45:29.314Z,1.60
2017-12-12T07:46:28.215Z,1.55
2017-12-12T07:47:29.229Z,1.64
2017-12-12T07:48:28.146Z,1.63
2017-12-12T07:49:30.261Z,1.66
2017-12-12T07:50:28.151Z,1.69
2017-12-12T07:51:29.258Z,1.69
2017-12-12T07:52:28.162Z,1.62
2017-12-12T07:53:41.033Z,1.64
2017-12-12T07:54:28.153Z,1.63
2017-12-12T07:55:33.070Z,1.69
2017-12-12T07:56:28.179Z,1.63
2017-12-12T07:57:29.289Z,1.67
2017-12-12T07:58:28.180Z,1.63
2017-12-12T07:59:34.114Z,1.64
2017-12-12T08:00:28.172Z,1.67
2017-12-12T08:01:28.314Z,1.77
2017-12-12T08:02:28.184Z,1.74
2017-12-12T08:03:29.321Z,1.77
2017-12-12T08:04:28.188Z,1.81
2017-12-12T08:05:28.321Z,1.69
2017-12-12T08:06:28.191Z,1.80
2017-12-12T08:07:49.208Z,1.84
2017-12-12T08:08:28.200Z,1.81
2017-12-12T08:09:29.378Z,1.84
2017-12-12T08:10:28.207Z,1.80
2017-12-12T08:11:34.091Z,1.81
2017-12-12T08:12:28.212Z,1.78
2017-12-12T08:13:28.373Z,1.78
2017-12-12T08:14:28.251Z,1.78
2017-12-12T08:15:40.028Z,1.80
2017-12-12T08:16:28.253Z,1.77
2017-12-12T08:17:30.308Z,1.77
2017-12-12T08:18:28.218Z,1.80
2017-12-12T08:19:33.118Z,1.78
2017-12-12T08:20:28.223Z,1.73
2017-12-12T08:21:29.313Z,1.77
2017-12-12T08:22:28.234Z,1.74
2017-12-12T08:23:30.346Z,1.84
2017-12-12T08:24:28.235Z,1.75
2017-12-12T08:25:28.315Z,1.80
2017-12-12T08:26:28.243Z,1.87
2017-12-12T08:27:29.352Z,1.80
2017-12-12T08:28:28.969Z,1.81
2017-12-12T08:29:28.340Z,1.84
2017-12-12T08:30:28.252Z,1.81
2017-12-12T08:31:29.273Z,1.85
2017-12-12T08:32:28.298Z,1.84
2017-12-12T08:33:28.397Z,1.80
2017-12-12T08:34:28.262Z,1.81
2017-12-12T08:35:28.334Z,1.82
2017-12-12T08:36:28.273Z,1.82
2017-12-12T08:37:28.334Z,1.92
2017-12-12T08:38:28.271Z,1.89
2017-12-12T08:39:28.278Z,1.81
2017-12-12T08:40:28.281Z,1.91
2017-12-12T08:41:29.392Z,1.91
2017-12-12T08:42:28.286Z,1.92
2017-12-12T08:43:28.380Z,1.87
2017-12-12T08:44:28.298Z,1.92
2017-12-12T08:45:28.408Z,1.95
2017-12-12T08:46:28.300Z,1.95
2017-12-12T08:47:28.407Z,2.04
2017-12-12T08:48:28.323Z,2.03
2017-12-12T08:49:28.299Z,2.01
2017-12-12T08:50:28.509Z,2.03
2017-12-12T08:51:28.316Z,2.04
2017-12-12T08:52:28.350Z,2.01
2017-12-12T08:53:28.324Z,1.97
2017-12-12T08:54:28.355Z,1.97
2017-12-12T08:55:28.346Z,2.03
2017-12-12T08:56:28.387Z,2.01
2017-12-12T08:57:28.335Z,1.99
2017-12-12T08:58:28.380Z,2.06
2017-12-12T08:59:28.330Z,2.12
2017-12-12T09:00:28.396Z,2.06
2017-12-12T09:01:28.335Z,2.15
2017-12-12T09:02:28.344Z,2.10
2017-12-12T09:03:29.452Z,2.04
2017-12-12T09:04:28.340Z,2.17
2017-12-12T09:05:28.344Z,2.06
2017-12-12T09:06:28.453Z,2.07
2017-12-12T09:07:28.410Z,2.03
2017-12-12T09:08:28.465Z,2.18
2017-12-12T09:09:28.380Z,2.07
2017-12-12T09:10:28.463Z,2.11
2017-12-12T09:11:28.366Z,2.14
2017-12-12T09:12:28.368Z,2.17
2017-12-12T09:13:28.371Z,2.22
2017-12-12T09:14:28.386Z,2.07
2017-12-12T09:15:28.367Z,2.07
2017-12-12T09:16:28.395Z,2.18
2017-12-12T09:17:28.386Z,2.11
2017-12-12T09:18:33.040Z,2.12
2017-12-12T09:19:28.379Z,2.21
2017-12-12T09:20:28.442Z,2.11
2017-12-12T09:21:28.421Z,2.12
2017-12-12T09:22:28.474Z,2.06
2017-12-12T09:23:28.394Z,2.03
2017-12-12T09:24:28.477Z,2.07
2017-12-12T09:25:28.401Z,2.11
2017-12-12T09:26:28.413Z,2.04
2017-12-12T09:27:28.403Z,2.07
2017-12-12T09:28:32.991Z,2.15
2017-12-12T09:29:28.405Z,2.15
2017-12-12T09:30:28.501Z,2.12
2017-12-12T09:31:28.416Z,2.07
2017-12-12T09:32:28.505Z,2.10
2017-12-12T09:33:28.416Z,2.10
2017-12-12T09:34:28.517Z,2.11
2017-12-12T09:35:28.417Z,2.07
2017-12-12T09:36:28.539Z,2.04
2017-12-12T09:37:28.433Z,2.03
2017-12-12T09:38:33.051Z,2.17
2017-12-12T09:39:28.448Z,2.17
2017-12-12T09:40:28.465Z,2.04
2017-12-12T09:41:28.436Z,2.11
2017-12-12T09:42:28.476Z,2.04
2017-12-12T09:43:28.468Z,2.07
2017-12-12T09:44:28.488Z,2.03
2017-12-12T09:45:28.455Z,2.07
2017-12-12T09:46:29.543Z,2.15
2017-12-12T09:47:28.453Z,2.14
2017-12-12T09:48:28.516Z,2.11
2017-12-12T09:49:28.457Z,2.17
2017-12-12T09:50:28.533Z,2.07
2017-12-12T09:51:28.471Z,2.17
2017-12-12T09:52:34.073Z,2.18
2017-12-12T09:53:28.468Z,2.14
2017-12-12T09:54:28.556Z,2.25
2017-12-12T09:55:28.474Z,2.15
2017-12-12T09:56:28.571Z,2.10
2017-12-12T09:57:28.508Z,2.10
2017-12-12T09:58:30.526Z,2.14
2017-12-12T09:59:28.501Z,2.10
2017-12-12T10:00:28.594Z,2.11
2017-12-12T10:01:28.501Z,2.11
2017-12-12T10:02:40.612Z,2.07
2017-12-12T10:03:28.517Z,2.06
2017-12-12T10:04:28.519Z,2.14
2017-12-12T10:05:28.501Z,2.14
2017-12-12T10:06:28.540Z,2.11
2017-12-12T10:07:28.508Z,2.18
2017-12-12T10:08:28.500Z,2.18
2017-12-12T10:09:28.555Z,2.14
2017-12-12T10:10:28.521Z,2.21
2017-12-12T10:11:29.590Z,2.22
2017-12-12T10:12:28.554Z,2.21
2017-12-12T10:13:34.517Z,2.28
2017-12-12T10:14:28.528Z,2.25
2017-12-12T10:15:28.603Z,2.21
2017-12-12T10:16:28.541Z,2.33
2017-12-12T10:17:30.661Z,2.32
2017-12-12T10:18:28.537Z,2.29
2017-12-12T10:19:41.525Z,2.24
2017-12-12T10:20:28.549Z,2.22
2017-12-12T10:21:40.516Z,2.32
2017-12-12T10:22:28.547Z,2.32
2017-12-12T10:23:33.571Z,2.32
2017-12-12T10:24:28.556Z,2.37
2017-12-12T10:25:33.575Z,2.29
2017-12-12T10:26:28.563Z,2.37
2017-12-12T10:27:28.673Z,2.24
2017-12-12T10:28:28.566Z,2.24
2017-12-12T10:29:28.566Z,2.32
2017-12-12T10:30:30.642Z,2.21
2017-12-12T10:31:28.570Z,2.37
2017-12-12T10:32:43.566Z,2.30
2017-12-12T10:33:28.590Z,2.30
2017-12-12T10:34:35.589Z,2.22
2017-12-12T10:35:28.585Z,2.29
2017-12-12T10:36:29.680Z,2.28
2017-12-12T10:37:28.586Z,2.18
2017-12-12T10:38:29.670Z,2.19
2017-12-12T10:39:28.600Z,2.30
2017-12-12T10:40:41.589Z,2.28
2017-12-12T10:41:28.598Z,2.11
2017-12-12T10:42:28.682Z,2.04
2017-12-12T10:43:28.605Z,2.01
2017-12-12T10:44:33.512Z,2.01
2017-12-12T10:45:28.619Z,2.18
2017-12-12T10:46:43.552Z,2.06
2017-12-12T10:47:28.655Z,2.04
2017-12-12T10:48:28.773Z,2.01
2017-12-12T10:49:28.616Z,1.99
2017-12-12T10:50:45.526Z,1.91
2017-12-12T10:51:28.624Z,2.01
2017-12-12T10:52:30.701Z,1.92
2017-12-12T10:53:28.628Z,1.92
2017-12-12T10:54:43.500Z,1.93
2017-12-12T10:55:28.635Z,1.91
2017-12-12T10:56:35.545Z,1.92
2017-12-12T10:57:28.643Z,1.78
2017-12-12T10:58:34.520Z,1.81
2017-12-12T10:59:28.674Z,1.82
2017-12-12T11:00:39.557Z,1.81
2017-12-12T11:01:28.648Z,1.81
2017-12-12T11:02:50.721Z,1.78
2017-12-12T11:03:28.668Z,1.78
2017-12-12T11:04:34.587Z,1.84
2017-12-12T11:05:28.687Z,1.82
2017-12-12T11:06:35.604Z,1.84
2017-12-12T11:07:28.666Z,1.77
2017-12-12T11:08:56.497Z,1.87
2017-12-12T11:09:28.679Z,1.87
2017-12-12T11:10:28.684Z,1.82
2017-12-12T11:11:41.569Z,1.82
2017-12-12T11:12:28.684Z,1.80
2017-12-12T11:13:29.715Z,1.81
2017-12-12T11:14:28.697Z,1.84
2017-12-12T11:15:40.569Z,1.87
2017-12-12T11:16:28.724Z,1.82
2017-12-12T11:17:39.570Z,1.81
2017-12-12T11:18:28.690Z,1.89
2017-12-12T11:19:28.746Z,1.97
2017-12-12T11:20:28.706Z,1.92
2017-12-12T11:39:43.551Z,2.22
2017-12-12T11:40:43.532Z,2.22
2017-12-12T11:41:43.582Z,2.28
2017-12-12T11:42:43.538Z,2.28
2017-12-12T11:43:43.560Z,2.37
2017-12-12T11:44:43.549Z,2.29
2017-12-12T11:45:43.570Z,2.25
2017-12-12T11:46:43.615Z,2.29
2017-12-12T11:47:43.557Z,2.43
2017-12-12T11:48:43.579Z,2.42
2017-12-12T11:49:43.556Z,2.45
2017-12-12T11:50:43.548Z,2.48
2017-12-12T11:51:43.648Z,2.57
2017-12-12T11:52:43.572Z,2.57
2017-12-12T11:53:43.661Z,2.57
2017-12-12T11:54:43.558Z,2.58
2017-12-12T11:55:43.567Z,2.60
2017-12-12T11:56:43.566Z,2.63
2017-12-12T11:57:44.944Z,2.72
2017-12-12T11:58:43.572Z,2.68
2017-12-12T11:59:43.601Z,2.81
2017-12-12T12:00:43.573Z,2.86
2017-12-12T12:01:43.609Z,2.91
2017-12-12T12:02:43.586Z,3.00
2017-12-12T12:03:43.592Z,2.87
2017-12-12T12:04:43.601Z,3.05
2017-12-12T12:05:43.640Z,3.08
2017-12-12T12:06:43.592Z,3.08
2017-12-12T12:07:43.649Z,3.15
2017-12-12T12:08:43.597Z,3.11
2017-12-12T12:09:44.689Z,3.11
2017-12-12T12:10:43.595Z,3.23
2017-12-12T12:11:43.680Z,3.23
2017-12-12T12:12:43.608Z,3.29
2017-12-12T12:13:43.602Z,3.23
2017-12-12T12:14:44.735Z,3.35
2017-12-12T12:15:43.608Z,3.41
2017-12-12T12:16:43.709Z,3.45
2017-12-12T12:17:43.607Z,3.49
2017-12-12T12:18:43.725Z,3.56
2017-12-12T12:19:43.625Z,3.55
2017-12-12T12:20:43.636Z,3.48
2017-12-12T12:21:43.617Z,3.52
2017-12-12T12:22:45.706Z,3.51
2017-12-12T12:23:43.640Z,3.52
2017-12-12T12:24:43.665Z,3.48
2017-12-12T12:25:43.622Z,3.35
2017-12-12T12:26:43.673Z,3.27
2017-12-12T12:27:43.635Z,3.30
2017-12-12T12:28:43.648Z,3.32
2017-12-12T12:29:44.741Z,3.37
2017-12-12T12:30:43.637Z,3.29
2017-12-12T12:31:43.658Z,3.29
2017-12-12T12:32:44.741Z,3.26
2017-12-12T12:33:43.646Z,3.25
2017-12-12T12:34:43.633Z,3.25
2017-12-12T12:35:43.740Z,3.23
2017-12-12T12:36:43.639Z,3.18
2017-12-12T12:37:43.793Z,3.11
2017-12-12T12:38:43.651Z,3.14
2017-12-12T12:39:43.852Z,3.08
2017-12-12T12:40:43.662Z,3.12
2017-12-12T12:41:43.686Z,3.11
2017-12-12T12:42:43.671Z,3.12
2017-12-12T12:43:43.729Z,3.07
2017-12-12T12:44:43.668Z,3.11
2017-12-12T12:45:43.660Z,3.04
2017-12-12T12:46:43.722Z,3.04
2017-12-12T12:47:43.668Z,3.14
2017-12-12T12:48:43.668Z,3.11
2017-12-12T12:49:43.735Z,3.14
2017-12-12T12:50:43.680Z,3.09
2017-12-12T12:51:43.680Z,3.12
2017-12-12T12:52:43.672Z,3.15
2017-12-12T12:53:43.685Z,3.11
2017-12-12T12:54:43.678Z,3.07
2017-12-12T12:55:43.681Z,3.09
2017-12-12T12:56:43.687Z,3.07
2017-12-12T12:57:43.680Z,3.11
2017-12-12T12:58:43.696Z,3.11
2017-12-12T12:59:43.706Z,3.15
2017-12-12T13:00:43.684Z,3.09
2017-12-12T13:01:43.704Z,3.02
2017-12-12T13:02:43.705Z,3.02
2017-12-12T13:03:43.752Z,3.04
2017-12-12T13:04:43.701Z,2.99
2017-12-12T13:05:43.746Z,3.04
2017-12-12T13:06:43.716Z,3.07
2017-12-12T13:07:43.704Z,3.09
2017-12-12T13:08:43.772Z,3.08
2017-12-12T13:09:43.705Z,3.05
2017-12-12T13:10:43.776Z,3.09
2017-12-12T13:11:43.717Z,3.14
2017-12-12T13:12:43.793Z,3.07
2017-12-12T13:13:43.726Z,3.08
2017-12-12T13:14:43.804Z,2.99
2017-12-12T13:15:43.737Z,2.99
2017-12-12T13:16:43.723Z,2.99
2017-12-12T13:17:43.722Z,2.97
2017-12-12T13:18:43.845Z,3.04
2017-12-12T13:19:43.755Z,3.02
2017-12-12T13:20:43.847Z,2.93
2017-12-12T13:21:43.732Z,2.93
2017-12-12T13:22:43.756Z,2.89
2017-12-12T13:23:43.737Z,3.00
2017-12-12T13:24:43.766Z,2.93
2017-12-12T13:25:43.746Z,2.90
2017-12-12T13:26:43.733Z,2.93
2017-12-12T13:27:43.750Z,2.86
2017-12-12T13:28:43.790Z,2.81
2017-12-12T13:29:43.748Z,2.78
2017-12-12T13:30:43.806Z,2.89
2017-12-12T13:31:43.807Z,2.82
2017-12-12T13:32:43.819Z,2.86
2017-12-12T13:33:43.755Z,2.82
2017-12-12T13:34:43.833Z,2.84
2017-12-12T13:35:43.767Z,2.84
2017-12-12T13:36:43.862Z,2.93
2017-12-12T13:37:43.753Z,2.89
2017-12-12T13:38:43.871Z,2.81
2017-12-12T13:39:43.767Z,2.90
2017-12-12T13:40:43.872Z,2.94
2017-12-12T13:41:43.783Z,2.89
2017-12-12T13:42:43.794Z,2.94
2017-12-12T13:43:43.775Z,2.82
2017-12-12T13:44:43.776Z,3.00
2017-12-12T13:45:43.783Z,2.86
2017-12-12T13:46:44.901Z,2.84
2017-12-12T13:47:43.790Z,2.84
2017-12-12T13:48:43.826Z,2.82
2017-12-12T13:49:43.792Z,2.96
2017-12-12T13:50:44.864Z,2.81
2017-12-12T13:51:43.792Z,2.86
2017-12-12T13:52:43.854Z,2.81
2017-12-12T13:53:43.785Z,2.84
2017-12-12T13:54:43.872Z,2.86
2017-12-12T13:55:43.796Z,2.91
2017-12-12T13:56:43.876Z,3.04
2017-12-12T13:57:43.798Z,2.96